createdAt,value
2017-10-15T00:00:01.472Z,99.9
2017-10-15T00:01:08.928Z,99.9
2017-10-15T00:02:16.390Z,99.9
2017-10-15T00:03:23.504Z,99.9
2017-10-15T00:04:31.214Z,99.9
2017-10-15T00:05:38.694Z,99.9
2017-10-15T00:06:45.804Z,99.9
2017-10-15T00:07:53.262Z,99.9
2017-10-15T00:09:00.980Z,99.9
2017-10-15T00:10:08.443Z,99.9
2017-10-15T00:11:15.216Z,99.9
2017-10-15T00:12:22.678Z,99.9
2017-10-15T00:13:30.134Z,99.9
2017-10-15T00:14:37.254Z,99.9
2017-10-15T00:15:44.380Z,99.9
2017-10-15T00:16:51.841Z,99.9
2017-10-15T00:17:59.297Z,99.9
2017-10-15T00:19:06.755Z,99.9
2017-10-15T00:20:14.222Z,99.9
2017-10-15T00:21:21.687Z,99.9
2017-10-15T00:22:29.146Z,99.9
2017-10-15T00:23:36.603Z,99.9
2017-10-15T00:24:44.067Z,99.9
2017-10-15T00:25:51.182Z,99.9
2017-10-15T00:26:58.302Z,99.9
2017-10-15T00:28:05.758Z,99.9
2017-10-15T00:29:13.221Z,99.9
2017-10-15T00:30:20.682Z,99.9
2017-10-15T00:31:27.458Z,99.9
2017-10-15T00:32:34.918Z,99.9
2017-10-15T00:33:42.035Z,99.9
2017-10-15T00:34:49.492Z,99.9
2017-10-15T00:35:56.952Z,99.9
2017-10-15T00:37:04.415Z,99.9
2017-10-15T00:38:11.878Z,99.9
2017-10-15T00:39:19.339Z,99.9
2017-10-15T00:40:26.455Z,99.9
2017-10-15T00:41:33.920Z,99.9
2017-10-15T00:42:41.383Z,99.9
2017-10-15T00:43:48.846Z,99.9
2017-10-15T00:44:56.306Z,99.9
2017-10-15T00:46:03.766Z,99.9
2017-10-15T00:47:10.890Z,99.9
2017-10-15T00:48:18.347Z,99.9
2017-10-15T00:49:25.824Z,99.9
2017-10-15T00:50:33.273Z,99.9
2017-10-15T00:51:40.745Z,99.9
2017-10-15T00:52:47.860Z,99.9
2017-10-15T00:53:55.321Z,99.9
2017-10-15T00:55:02.782Z,99.9
2017-10-15T00:56:09.894Z,99.9
2017-10-15T00:57:17.010Z,99.9
2017-10-15T00:58:24.469Z,99.9
2017-10-15T00:59:31.932Z,99.9
2017-10-15T01:00:39.389Z,99.9
2017-10-15T01:01:46.843Z,99.9
2017-10-15T01:02:54.302Z,99.9
2017-10-15T01:04:01.763Z,99.9
2017-10-15T01:05:09.222Z,99.9
2017-10-15T01:06:16.696Z,99.9
2017-10-15T01:07:23.807Z,99.9
2017-10-15T01:08:31.264Z,99.9
2017-10-15T01:09:38.388Z,99.9
2017-10-15T01:10:45.501Z,99.9
2017-10-15T01:11:52.962Z,99.9
2017-10-15T01:13:00.426Z,99.9
2017-10-15T01:14:07.890Z,99.9
2017-10-15T01:15:14.687Z,99.9
2017-10-15T01:16:22.146Z,99.9
2017-10-15T01:17:29.621Z,99.9
2017-10-15T01:18:37.083Z,99.9
2017-10-15T01:19:44.541Z,99.9
2017-10-15T01:20:51.692Z,99.9
2017-10-15T01:21:59.150Z,99.9
2017-10-15T01:23:06.610Z,99.9
2017-10-15T01:24:14.069Z,99.9
2017-10-15T01:25:21.527Z,99.9
2017-10-15T01:26:28.991Z,99.9
2017-10-15T01:27:36.447Z,99.9
2017-10-15T01:28:43.908Z,99.9
2017-10-15T01:29:51.383Z,99.9
2017-10-15T01:30:58.484Z,99.9
2017-10-15T01:32:05.945Z,99.9
2017-10-15T01:33:13.402Z,99.9
2017-10-15T01:34:20.862Z,99.9
2017-10-15T01:35:28.329Z,99.9
2017-10-15T01:36:35.781Z,99.9
2017-10-15T01:37:43.240Z,99.9
2017-10-15T01:38:50.700Z,99.9
2017-10-15T01:39:58.152Z,99.9
2017-10-15T01:41:05.268Z,99.9
2017-10-15T01:42:12.053Z,99.9
2017-10-15T01:43:19.512Z,99.9
2017-10-15T01:44:26.967Z,99.9
2017-10-15T01:45:34.424Z,99.9
2017-10-15T01:46:41.885Z,99.9
2017-10-15T01:47:49.347Z,99.9
2017-10-15T01:48:56.803Z,99.9
2017-10-15T01:50:04.264Z,99.9
2017-10-15T01:51:11.720Z,99.9
2017-10-15T01:52:19.181Z,99.9
2017-10-15T01:53:26.295Z,99.9
2017-10-15T01:54:33.752Z,99.9
2017-10-15T01:55:41.212Z,99.9
2017-10-15T01:56:48.332Z,99.9
2017-10-15T01:57:55.790Z,99.9
2017-10-15T01:59:03.250Z,99.9
2017-10-15T02:00:10.710Z,99.9
2017-10-15T02:01:18.171Z,99.9
2017-10-15T02:02:25.626Z,99.9
2017-10-15T02:03:33.086Z,99.9
2017-10-15T02:04:39.863Z,99.9
2017-10-15T02:05:47.324Z,99.9
2017-10-15T02:06:54.438Z,99.9
2017-10-15T02:08:01.900Z,99.9
2017-10-15T02:09:09.359Z,99.9
2017-10-15T02:10:16.834Z,99.9
2017-10-15T02:11:24.290Z,99.9
2017-10-15T02:12:32.002Z,99.9
2017-10-15T02:13:39.461Z,99.9
2017-10-15T02:14:47.157Z,99.9
2017-10-15T02:15:54.280Z,99.9
2017-10-15T02:17:01.737Z,99.9
2017-10-15T02:18:09.194Z,99.9
2017-10-15T02:19:16.653Z,99.9
2017-10-15T02:20:24.115Z,99.9
2017-10-15T02:21:31.575Z,99.9
2017-10-15T02:22:39.031Z,99.9
2017-10-15T02:23:46.488Z,99.9
2017-10-15T02:24:53.948Z,99.9
2017-10-15T02:26:01.063Z,99.9
2017-10-15T02:27:08.522Z,99.9
2017-10-15T02:28:15.639Z,99.9
2017-10-15T02:29:23.099Z,99.9
2017-10-15T02:30:30.558Z,99.9
2017-10-15T02:31:38.028Z,99.9
2017-10-15T02:32:45.512Z,99.9
2017-10-15T02:33:52.960Z,99.9
2017-10-15T02:35:00.668Z,99.9
2017-10-15T02:36:08.124Z,99.9
2017-10-15T02:37:15.585Z,99.9
2017-10-15T02:38:23.046Z,99.9
2017-10-15T02:39:30.504Z,99.9
2017-10-15T02:40:37.525Z,99.9
2017-10-15T02:41:44.982Z,99.9
2017-10-15T02:42:52.441Z,99.9
2017-10-15T02:43:59.558Z,99.9
2017-10-15T02:45:06.670Z,99.9
2017-10-15T02:46:14.126Z,99.9
2017-10-15T02:47:21.588Z,99.9
2017-10-15T02:48:29.047Z,99.9
2017-10-15T02:49:36.907Z,99.9
2017-10-15T02:50:44.370Z,99.9
2017-10-15T02:51:51.829Z,99.9
2017-10-15T02:52:59.288Z,99.9
2017-10-15T02:54:06.746Z,99.9
2017-10-15T02:55:14.206Z,99.9
2017-10-15T02:56:21.322Z,99.9
2017-10-15T02:57:28.777Z,99.9
2017-10-15T02:58:36.236Z,99.9
2017-10-15T02:59:43.726Z,99.9
2017-10-15T03:00:51.183Z,99.9
2017-10-15T03:01:58.641Z,99.9
2017-10-15T03:03:05.767Z,99.9
2017-10-15T03:04:12.889Z,99.9
2017-10-15T03:05:20.350Z,99.9
2017-10-15T03:06:27.808Z,99.9
2017-10-15T03:07:35.266Z,99.9
2017-10-15T03:08:42.381Z,99.9
2017-10-15T03:09:49.855Z,99.9
2017-10-15T03:10:57.312Z,99.9
2017-10-15T03:12:04.772Z,99.9
2017-10-15T03:13:12.256Z,99.9
2017-10-15T03:14:19.707Z,99.9
2017-10-15T03:15:27.171Z,99.9
2017-10-15T03:16:34.631Z,99.9
2017-10-15T03:17:41.743Z,99.9
2017-10-15T03:18:49.203Z,99.9
2017-10-15T03:19:56.312Z,99.9
2017-10-15T03:21:03.775Z,99.9
2017-10-15T03:22:10.887Z,99.9
2017-10-15T03:23:18.351Z,99.9
2017-10-15T03:24:25.807Z,99.9
2017-10-15T03:25:33.364Z,99.9
2017-10-15T03:26:40.824Z,99.9
2017-10-15T03:27:48.286Z,99.9
2017-10-15T03:28:55.743Z,99.9
2017-10-15T03:30:03.207Z,99.9
2017-10-15T03:31:10.673Z,99.9
2017-10-15T03:32:18.132Z,99.9
2017-10-15T03:33:25.589Z,99.9
2017-10-15T03:34:33.047Z,99.9
2017-10-15T03:35:40.506Z,99.9
2017-10-15T03:36:47.872Z,99.9
2017-10-15T03:37:55.326Z,99.9
2017-10-15T03:39:02.783Z,99.9
2017-10-15T03:40:10.257Z,99.9
2017-10-15T03:41:17.725Z,99.9
2017-10-15T03:42:25.177Z,99.9
2017-10-15T03:43:32.641Z,99.9
2017-10-15T03:44:40.101Z,99.9
2017-10-15T03:45:47.557Z,99.9
2017-10-15T03:46:55.014Z,99.9
2017-10-15T03:48:02.478Z,99.9
2017-10-15T03:49:09.933Z,99.9
2017-10-15T03:50:17.393Z,99.9
2017-10-15T03:51:24.848Z,99.9
2017-10-15T03:52:32.312Z,99.9
2017-10-15T03:53:39.777Z,99.9
2017-10-15T03:54:47.233Z,99.9
2017-10-15T03:55:54.359Z,99.9
2017-10-15T03:57:01.818Z,99.9
2017-10-15T03:58:09.281Z,99.9
2017-10-15T03:59:16.736Z,99.9
2017-10-15T04:00:24.201Z,99.9
2017-10-15T04:01:31.661Z,99.9
2017-10-15T04:02:39.121Z,99.9
2017-10-15T04:03:46.578Z,99.9
2017-10-15T04:04:54.054Z,99.9
2017-10-15T04:06:01.512Z,99.9
2017-10-15T04:07:08.973Z,99.9
2017-10-15T04:08:16.428Z,99.9
2017-10-15T04:09:23.544Z,99.9
2017-10-15T04:10:31.000Z,99.9
2017-10-15T04:11:38.457Z,99.9
2017-10-15T04:12:45.916Z,99.9
2017-10-15T04:13:53.372Z,99.9
2017-10-15T04:15:00.830Z,99.9
2017-10-15T04:16:07.948Z,99.9
2017-10-15T04:17:15.405Z,99.9
2017-10-15T04:18:22.519Z,99.9
2017-10-15T04:19:29.978Z,99.9
2017-10-15T04:20:37.439Z,99.9
2017-10-15T04:21:44.551Z,99.9
2017-10-15T04:22:52.008Z,99.9
2017-10-15T04:23:59.474Z,99.9
2017-10-15T04:25:06.961Z,99.9
2017-10-15T04:26:14.073Z,99.9
2017-10-15T04:27:21.192Z,99.9
2017-10-15T04:28:28.655Z,99.9
2017-10-15T04:29:36.114Z,99.9
2017-10-15T04:30:43.228Z,99.9
2017-10-15T04:31:50.687Z,99.9
2017-10-15T04:32:58.145Z,99.9
2017-10-15T04:34:05.262Z,99.9
2017-10-15T04:35:12.374Z,99.9
2017-10-15T04:36:19.838Z,99.9
2017-10-15T04:37:27.297Z,99.9
2017-10-15T04:38:34.400Z,99.9
2017-10-15T04:39:41.861Z,99.9
2017-10-15T04:40:49.320Z,99.9
2017-10-15T04:41:56.786Z,99.9
2017-10-15T04:43:04.238Z,99.9
2017-10-15T04:44:11.697Z,99.9
2017-10-15T04:45:18.812Z,99.9
2017-10-15T04:46:26.268Z,99.9
2017-10-15T04:47:33.724Z,99.9
2017-10-15T04:48:41.181Z,99.9
2017-10-15T04:49:48.636Z,99.9
2017-10-15T04:50:55.412Z,99.9
2017-10-15T04:52:02.867Z,99.9
2017-10-15T04:53:10.327Z,99.9
2017-10-15T04:54:17.783Z,99.9
2017-10-15T04:55:24.905Z,99.9
2017-10-15T04:56:32.025Z,99.9
2017-10-15T04:57:39.482Z,99.9
2017-10-15T04:58:46.942Z,99.9
2017-10-15T04:59:54.396Z,99.9
2017-10-15T05:01:01.852Z,99.9
2017-10-15T05:02:09.307Z,99.9
2017-10-15T05:03:16.763Z,99.9
2017-10-15T05:04:23.877Z,99.9
2017-10-15T05:05:31.340Z,99.9
2017-10-15T05:06:38.794Z,99.9
2017-10-15T05:07:46.254Z,99.9
2017-10-15T05:08:53.714Z,99.9
2017-10-15T05:10:01.174Z,99.9
2017-10-15T05:11:08.630Z,99.9
2017-10-15T05:12:16.090Z,99.9
2017-10-15T05:13:23.543Z,99.9
2017-10-15T05:14:31.001Z,99.9
2017-10-15T05:15:38.568Z,99.9
2017-10-15T05:16:46.031Z,99.9
2017-10-15T05:17:53.492Z,99.9
2017-10-15T05:19:00.951Z,99.9
2017-10-15T05:20:08.409Z,99.9
2017-10-15T05:21:15.868Z,99.9
2017-10-15T05:22:23.332Z,99.9
2017-10-15T05:23:30.784Z,99.9
2017-10-15T05:24:37.902Z,99.9
2017-10-15T05:25:45.363Z,99.9
2017-10-15T05:26:52.835Z,99.9
2017-10-15T05:28:00.303Z,99.9
2017-10-15T05:29:07.765Z,99.9
2017-10-15T05:30:15.218Z,99.9
2017-10-15T05:31:22.678Z,99.9
2017-10-15T05:32:30.135Z,99.9
2017-10-15T05:33:37.590Z,99.9
2017-10-15T05:34:45.050Z,99.9
2017-10-15T05:35:52.513Z,99.9
2017-10-15T05:36:59.968Z,99.9
2017-10-15T05:38:07.426Z,99.9
2017-10-15T05:39:14.888Z,99.9
2017-10-15T05:40:22.345Z,99.9
2017-10-15T05:41:29.803Z,99.9
2017-10-15T05:42:37.264Z,99.9
2017-10-15T05:43:44.721Z,99.9
2017-10-15T05:44:52.177Z,99.9
2017-10-15T05:45:59.637Z,99.9
2017-10-15T05:47:07.095Z,99.9
2017-10-15T05:48:14.229Z,99.9
2017-10-15T05:49:21.682Z,99.9
2017-10-15T05:50:29.142Z,99.9
2017-10-15T05:51:36.604Z,99.9
2017-10-15T05:52:44.080Z,99.9
2017-10-15T05:53:51.539Z,99.9
2017-10-15T05:54:58.998Z,99.9
2017-10-15T05:56:06.457Z,99.9
2017-10-15T05:57:13.914Z,99.9
2017-10-15T05:58:21.387Z,99.9
2017-10-15T05:59:28.507Z,99.9
2017-10-15T06:00:35.625Z,99.9
2017-10-15T06:01:42.739Z,99.9
2017-10-15T06:02:50.196Z,99.9
2017-10-15T06:03:57.655Z,99.9
2017-10-15T06:05:05.112Z,99.9
2017-10-15T06:06:12.580Z,99.9
2017-10-15T06:07:20.440Z,99.9
2017-10-15T06:08:27.900Z,99.9
2017-10-15T06:09:35.358Z,99.9
2017-10-15T06:10:42.817Z,99.9
2017-10-15T06:11:50.287Z,99.9
2017-10-15T06:12:57.741Z,99.9
2017-10-15T06:14:05.198Z,99.9
2017-10-15T06:15:12.658Z,99.9
2017-10-15T06:16:20.117Z,99.9
2017-10-15T06:17:27.238Z,99.9
2017-10-15T06:18:34.699Z,99.9
2017-10-15T06:19:42.157Z,99.9
2017-10-15T06:20:49.618Z,99.9
2017-10-15T06:21:57.073Z,99.9
2017-10-15T06:23:04.533Z,99.9
2017-10-15T06:24:11.986Z,99.9
2017-10-15T06:25:19.446Z,99.9
2017-10-15T06:26:26.903Z,99.9
2017-10-15T06:27:34.359Z,99.9
2017-10-15T06:28:41.817Z,99.9
2017-10-15T06:29:49.275Z,99.9
2017-10-15T06:30:56.739Z,99.9
2017-10-15T06:32:03.852Z,99.9
2017-10-15T06:33:11.309Z,99.9
2017-10-15T06:34:18.784Z,99.9
2017-10-15T06:35:26.460Z,99.9
2017-10-15T06:36:33.936Z,99.9
2017-10-15T06:37:41.406Z,99.9
2017-10-15T06:38:48.864Z,99.9
2017-10-15T06:39:56.321Z,99.9
2017-10-15T06:41:03.793Z,99.9
2017-10-15T06:42:11.249Z,99.9
2017-10-15T06:43:18.706Z,99.9
2017-10-15T06:44:25.829Z,99.9
2017-10-15T06:45:32.600Z,99.9
2017-10-15T06:46:39.377Z,99.9
2017-10-15T06:47:46.829Z,99.9
2017-10-15T06:48:54.288Z,99.9
2017-10-15T06:50:01.757Z,99.9
2017-10-15T06:51:09.204Z,99.9
2017-10-15T06:52:16.661Z,99.9
2017-10-15T06:53:24.119Z,99.9
2017-10-15T06:54:31.578Z,99.9
2017-10-15T06:55:38.692Z,99.9
2017-10-15T06:56:46.159Z,99.9
2017-10-15T06:57:53.615Z,99.9
2017-10-15T06:59:01.078Z,99.9
2017-10-15T07:00:08.190Z,99.9
2017-10-15T07:01:15.306Z,99.9
2017-10-15T07:02:22.765Z,99.9
2017-10-15T07:03:30.231Z,99.9
2017-10-15T07:04:37.364Z,99.9
2017-10-15T07:05:44.828Z,99.9
2017-10-15T07:06:52.280Z,99.9
2017-10-15T07:07:59.744Z,99.9
2017-10-15T07:09:07.199Z,99.9
2017-10-15T07:10:14.667Z,99.9
2017-10-15T07:11:21.791Z,99.9
2017-10-15T07:12:29.250Z,99.9
2017-10-15T07:13:36.712Z,99.9
2017-10-15T07:14:44.169Z,99.9
2017-10-15T07:15:51.626Z,99.9
2017-10-15T07:16:59.081Z,99.9
2017-10-15T07:18:06.541Z,99.9
2017-10-15T07:19:14.005Z,99.9
2017-10-15T07:20:21.463Z,99.9
2017-10-15T07:21:28.919Z,99.9
2017-10-15T07:22:36.380Z,99.9
2017-10-15T07:23:44.086Z,99.9
2017-10-15T07:24:51.548Z,99.9
2017-10-15T07:25:58.667Z,99.9
2017-10-15T07:27:05.780Z,99.9
2017-10-15T07:28:13.247Z,99.9
2017-10-15T07:29:20.949Z,99.9
2017-10-15T07:30:28.409Z,99.9
2017-10-15T07:31:35.868Z,99.9
2017-10-15T07:32:43.329Z,99.9
2017-10-15T07:33:50.808Z,99.9
2017-10-15T07:34:58.270Z,99.9
2017-10-15T07:36:05.391Z,99.9
2017-10-15T07:37:12.848Z,99.9
2017-10-15T07:38:20.314Z,99.9
2017-10-15T07:39:27.797Z,99.9
2017-10-15T07:40:35.254Z,99.9
2017-10-15T07:41:42.710Z,99.9
2017-10-15T07:42:50.169Z,99.9
2017-10-15T07:43:56.944Z,99.9
2017-10-15T07:45:04.405Z,99.9
2017-10-15T07:46:11.866Z,99.9
2017-10-15T07:47:19.325Z,99.9
2017-10-15T07:48:26.790Z,99.9
2017-10-15T07:49:34.244Z,99.9
2017-10-15T07:50:41.715Z,99.9
2017-10-15T07:51:49.178Z,99.9
2017-10-15T07:52:56.300Z,99.9
2017-10-15T07:54:03.758Z,99.9
2017-10-15T07:55:10.879Z,99.9
2017-10-15T07:56:18.341Z,99.9
2017-10-15T07:57:25.799Z,99.9
2017-10-15T07:58:33.256Z,99.9
2017-10-15T07:59:40.715Z,99.9
2017-10-15T08:00:48.193Z,99.9
2017-10-15T08:01:55.649Z,99.9
2017-10-15T08:03:02.427Z,99.9
2017-10-15T08:04:09.893Z,99.9
2017-10-15T08:05:17.356Z,99.9
2017-10-15T08:06:24.815Z,99.9
2017-10-15T08:07:32.279Z,99.9
2017-10-15T08:08:39.743Z,99.9
2017-10-15T08:09:47.205Z,99.9
2017-10-15T08:10:54.665Z,99.9
2017-10-15T08:12:02.383Z,99.9
2017-10-15T08:13:09.840Z,99.9
2017-10-15T08:14:17.308Z,99.9
2017-10-15T08:15:24.431Z,99.9
2017-10-15T08:16:31.894Z,99.9
2017-10-15T08:17:39.878Z,99.9
2017-10-15T08:18:46.981Z,99.9
2017-10-15T08:19:54.444Z,99.9
2017-10-15T08:21:01.903Z,99.9
2017-10-15T08:22:09.363Z,99.9
2017-10-15T08:23:16.580Z,99.9
2017-10-15T08:24:24.060Z,99.9
2017-10-15T08:25:31.517Z,99.9
2017-10-15T08:26:38.979Z,99.9
2017-10-15T08:28:55.694Z,99.9
2017-10-15T08:30:03.153Z,99.9
2017-10-15T08:31:10.616Z,99.9
2017-10-15T08:32:17.737Z,99.9
2017-10-15T08:33:25.218Z,99.9
2017-10-15T08:34:32.675Z,99.9
2017-10-15T08:35:40.140Z,99.9
2017-10-15T08:36:47.600Z,99.9
2017-10-15T08:37:55.060Z,99.9
2017-10-15T08:39:02.750Z,99.9
2017-10-15T08:40:09.872Z,99.9
2017-10-15T08:41:17.337Z,99.9
2017-10-15T08:42:24.459Z,99.9
2017-10-15T08:43:31.924Z,99.9
2017-10-15T08:44:39.385Z,99.9
2017-10-15T08:45:47.151Z,99.9
2017-10-15T08:46:54.620Z,99.9
2017-10-15T08:48:02.090Z,99.9
2017-10-15T08:49:09.560Z,99.9
2017-10-15T08:50:17.028Z,99.9
2017-10-15T08:51:24.145Z,99.9
2017-10-15T08:52:31.608Z,99.9
2017-10-15T08:53:39.077Z,99.9
2017-10-15T08:54:46.540Z,99.9
2017-10-15T08:55:54.303Z,99.9
2017-10-15T08:57:01.774Z,99.9
2017-10-15T08:58:09.229Z,99.9
2017-10-15T08:59:16.010Z,99.9
2017-10-15T09:00:23.490Z,99.9
2017-10-15T09:01:31.251Z,99.9
2017-10-15T09:02:38.376Z,99.9
2017-10-15T09:03:45.835Z,99.9
2017-10-15T09:04:53.304Z,99.9
2017-10-15T09:06:00.767Z,99.9
2017-10-15T09:07:08.527Z,99.9
2017-10-15T09:08:15.992Z,99.9
2017-10-15T09:09:23.108Z,99.9
2017-10-15T09:10:30.576Z,99.9
2017-10-15T09:11:38.074Z,99.9
2017-10-15T09:12:45.838Z,99.9
2017-10-15T09:13:53.303Z,99.9
2017-10-15T09:15:00.769Z,99.9
2017-10-15T09:16:08.230Z,99.9
2017-10-15T09:17:15.697Z,99.9
2017-10-15T09:18:23.462Z,99.9
2017-10-15T09:19:30.936Z,99.9
2017-10-15T09:20:38.398Z,99.9
2017-10-15T09:21:45.886Z,99.9
2017-10-15T09:22:53.347Z,99.9
2017-10-15T09:24:01.124Z,99.9
2017-10-15T09:25:08.602Z,99.9
2017-10-15T09:26:15.719Z,99.9
2017-10-15T09:27:23.182Z,99.9
2017-10-15T09:28:29.970Z,99.9
2017-10-15T09:29:37.597Z,99.9
2017-10-15T09:30:45.078Z,99.9
2017-10-15T09:31:52.544Z,99.9
2017-10-15T09:33:00.014Z,99.9
2017-10-15T09:34:07.473Z,99.9
2017-10-15T09:35:14.938Z,99.9
2017-10-15T09:36:22.404Z,99.9
2017-10-15T09:37:29.877Z,99.9
2017-10-15T09:38:37.340Z,99.9
2017-10-15T09:39:44.807Z,99.9
2017-10-15T09:40:52.574Z,99.9
2017-10-15T09:42:00.039Z,99.9
2017-10-15T09:43:07.504Z,99.9
2017-10-15T09:44:14.969Z,99.9
2017-10-15T09:45:22.740Z,99.9
2017-10-15T09:46:30.208Z,99.9
2017-10-15T09:47:37.687Z,99.9
2017-10-15T09:48:45.142Z,99.9
2017-10-15T09:49:52.618Z,99.9
2017-10-15T09:51:00.048Z,99.9
2017-10-15T09:52:07.525Z,99.9
2017-10-15T09:53:15.003Z,99.9
2017-10-15T09:54:22.471Z,99.9
2017-10-15T09:55:29.966Z,99.9
2017-10-15T09:56:37.730Z,99.9
2017-10-15T09:57:45.198Z,99.7
2017-10-15T09:58:52.669Z,99.5
2017-10-15T10:00:00.136Z,99.9
2017-10-15T10:01:07.618Z,99.9
2017-10-15T10:02:15.400Z,99.9
2017-10-15T10:03:22.862Z,99.4
2017-10-15T10:04:29.987Z,99.9
2017-10-15T10:05:37.458Z,99.9
2017-10-15T10:06:44.916Z,99.8
2017-10-15T10:07:52.679Z,99.9
2017-10-15T10:09:00.156Z,99.9
2017-10-15T10:10:07.622Z,99.3
2017-10-15T10:11:15.088Z,99.2
2017-10-15T10:12:22.557Z,99.3
2017-10-15T10:13:30.321Z,99.5
2017-10-15T10:14:37.797Z,99.9
2017-10-15T10:15:45.263Z,99.9
2017-10-15T10:16:52.731Z,99.9
2017-10-15T10:18:00.198Z,98.6
2017-10-15T10:19:07.666Z,98.5
2017-10-15T10:20:15.132Z,98.6
2017-10-15T10:21:22.601Z,98.5
2017-10-15T10:22:30.089Z,97.9
2017-10-15T10:23:37.549Z,98.8
2017-10-15T10:24:45.314Z,98.5
2017-10-15T10:25:52.786Z,99.1
2017-10-15T10:27:00.251Z,98.9
2017-10-15T10:28:07.714Z,98.4
2017-10-15T10:29:15.182Z,97.7
2017-10-15T10:30:22.947Z,97.5
2017-10-15T10:31:30.412Z,96.9
2017-10-15T10:32:37.875Z,95.8
2017-10-15T10:33:44.995Z,97.4
2017-10-15T10:34:52.458Z,96.8
2017-10-15T10:35:59.932Z,97.3
2017-10-15T10:37:07.414Z,98
2017-10-15T10:38:14.880Z,97.6
2017-10-15T10:39:22.018Z,95.7
2017-10-15T10:40:29.485Z,96.5
2017-10-15T10:41:37.256Z,96.1
2017-10-15T10:42:44.728Z,95.8
2017-10-15T10:43:52.194Z,94.6
2017-10-15T10:44:59.679Z,96.1
2017-10-15T10:46:07.148Z,96.3
2017-10-15T10:47:14.924Z,96.1
2017-10-15T10:48:22.387Z,95.4
2017-10-15T10:49:29.859Z,95.3
2017-10-15T10:50:36.982Z,96
2017-10-15T10:51:44.453Z,96.2
2017-10-15T10:52:51.583Z,95.6
2017-10-15T10:53:59.041Z,95.2
2017-10-15T10:55:06.513Z,93.6
2017-10-15T10:56:13.658Z,93.2
2017-10-15T10:57:21.123Z,95.8
2017-10-15T10:58:28.551Z,94.7
2017-10-15T10:59:35.681Z,94.4
2017-10-15T11:00:43.182Z,95.1
2017-10-15T11:01:50.653Z,95.7
2017-10-15T11:02:58.122Z,96
2017-10-15T11:04:05.894Z,93.1
2017-10-15T11:05:13.363Z,94.9
2017-10-15T11:06:20.498Z,93.3
2017-10-15T11:07:27.972Z,93
2017-10-15T11:08:35.441Z,94.3
2017-10-15T11:09:43.213Z,92.2
2017-10-15T11:10:50.894Z,93
2017-10-15T11:11:58.365Z,92
2017-10-15T11:13:05.831Z,91.5
2017-10-15T11:14:13.297Z,92.9
2017-10-15T11:15:20.769Z,93.8
2017-10-15T11:16:28.248Z,93.8
2017-10-15T11:17:35.706Z,94.3
2017-10-15T11:18:42.829Z,90.8
2017-10-15T11:19:50.295Z,91.6
2017-10-15T11:20:58.068Z,92
2017-10-15T11:22:05.535Z,91.7
2017-10-15T11:23:13.003Z,91.5
2017-10-15T11:24:20.472Z,91.8
2017-10-15T11:25:28.245Z,90.8
2017-10-15T11:26:35.714Z,90.6
2017-10-15T11:27:43.183Z,88.7
2017-10-15T11:28:50.651Z,87.9
2017-10-15T11:29:58.134Z,89.3
2017-10-15T11:31:05.889Z,86.3
2017-10-15T11:32:13.358Z,91.6
2017-10-15T11:33:20.826Z,90.7
2017-10-15T11:34:28.289Z,88.7
2017-10-15T11:35:35.425Z,88.5
2017-10-15T11:36:43.193Z,90.9
2017-10-15T11:37:50.663Z,91
2017-10-15T11:38:58.130Z,85.3
2017-10-15T11:40:05.255Z,86.6
2017-10-15T11:41:12.724Z,89.9
2017-10-15T11:42:19.808Z,85.3
2017-10-15T11:43:26.246Z,87.8
2017-10-15T11:44:33.726Z,86.6
2017-10-15T11:45:41.202Z,84
2017-10-15T11:46:48.673Z,87.3
2017-10-15T11:47:56.441Z,85.3
2017-10-15T11:49:03.564Z,85.6
2017-10-15T11:50:11.036Z,87.3
2017-10-15T11:51:18.163Z,90
2017-10-15T11:52:25.636Z,85.7
2017-10-15T11:53:33.406Z,83.3
2017-10-15T11:54:40.880Z,83.8
2017-10-15T11:55:48.356Z,83.4
2017-10-15T11:56:55.828Z,86
2017-10-15T11:58:03.293Z,82.7
2017-10-15T11:59:10.079Z,80.5
2017-10-15T12:00:17.554Z,84.1
2017-10-15T12:01:25.027Z,83.2
2017-10-15T12:02:32.506Z,86.8
2017-10-15T12:03:39.969Z,83.5
2017-10-15T12:04:47.398Z,85.4
2017-10-15T12:05:54.872Z,83.5
2017-10-15T12:07:02.010Z,83.3
2017-10-15T12:08:09.141Z,85.4
2017-10-15T12:09:16.637Z,88.8
2017-10-15T12:10:24.405Z,86.1
2017-10-15T12:11:31.874Z,86.9
2017-10-15T12:12:39.002Z,84.9
2017-10-15T12:13:46.340Z,81.2
2017-10-15T12:14:53.811Z,85.1
2017-10-15T12:16:01.281Z,83.3
2017-10-15T12:17:08.760Z,83.9
2017-10-15T12:18:15.886Z,80.7
2017-10-15T12:19:23.356Z,81.5
2017-10-15T12:20:30.830Z,83.3
2017-10-15T12:21:38.602Z,79.8
2017-10-15T12:22:46.069Z,84
2017-10-15T12:23:53.544Z,79.3
2017-10-15T12:25:01.017Z,77.8
2017-10-15T12:26:08.485Z,77.9
2017-10-15T12:27:16.256Z,79.6
2017-10-15T12:28:23.726Z,83.4
2017-10-15T12:29:30.852Z,82.9
2017-10-15T12:30:38.323Z,78.1
2017-10-15T12:31:45.800Z,79.3
2017-10-15T12:32:53.266Z,84.6
2017-10-15T12:34:00.738Z,79.4
2017-10-15T12:35:08.207Z,82.5
2017-10-15T12:36:15.673Z,82.1
2017-10-15T12:37:23.145Z,80.6
2017-10-15T12:38:30.919Z,82.6
2017-10-15T12:39:38.388Z,78.2
2017-10-15T12:40:45.861Z,80
2017-10-15T12:41:53.329Z,77.2
2017-10-15T12:43:00.802Z,79.6
2017-10-15T12:44:08.228Z,80.3
2017-10-15T12:45:15.698Z,81.8
2017-10-15T12:46:22.831Z,82.3
2017-10-15T12:47:30.307Z,82.3
2017-10-15T12:48:37.774Z,76.4
2017-10-15T12:49:45.549Z,80.4
2017-10-15T12:50:53.012Z,79
2017-10-15T12:52:00.484Z,77.9
2017-10-15T12:53:07.954Z,78.8
2017-10-15T12:54:15.421Z,80.2
2017-10-15T12:55:22.904Z,77.6
2017-10-15T12:56:30.364Z,79.6
2017-10-15T12:57:37.831Z,78
2017-10-15T12:58:45.312Z,80.6
2017-10-15T12:59:53.081Z,76.8
2017-10-15T13:01:00.549Z,78.2
2017-10-15T13:02:08.020Z,78.8
2017-10-15T13:03:15.493Z,78.5
2017-10-15T13:04:22.963Z,79.4
2017-10-15T13:05:30.735Z,76.5
2017-10-15T13:06:37.868Z,78.4
2017-10-15T13:07:45.347Z,79
2017-10-15T13:08:52.815Z,77.1
2017-10-15T13:10:00.285Z,79.3
2017-10-15T13:11:07.716Z,78.3
2017-10-15T13:12:15.185Z,77.6
2017-10-15T13:13:22.315Z,80.4
2017-10-15T13:14:29.794Z,77.9
2017-10-15T13:15:36.925Z,77
2017-10-15T13:16:44.701Z,74.8
2017-10-15T13:17:52.172Z,75.4
2017-10-15T13:18:59.642Z,75.8
2017-10-15T13:20:07.113Z,80.3
2017-10-15T13:21:14.589Z,78.2
2017-10-15T13:22:22.018Z,78.1
2017-10-15T13:23:29.487Z,74.3
2017-10-15T13:24:36.962Z,74.7
2017-10-15T13:25:44.438Z,75.4
2017-10-15T13:26:51.908Z,74.8
2017-10-15T13:27:59.680Z,78.3
2017-10-15T13:29:07.153Z,75.2
2017-10-15T13:30:14.624Z,81.1
2017-10-15T13:31:22.092Z,79.7
2017-10-15T13:32:29.565Z,78.7
2017-10-15T13:33:37.012Z,78.4
2017-10-15T13:34:44.142Z,74.5
2017-10-15T13:35:51.633Z,75.6
2017-10-15T13:36:59.102Z,76.2
2017-10-15T13:38:06.575Z,72.7
2017-10-15T13:39:14.043Z,75.4
2017-10-15T13:40:21.515Z,75.9
2017-10-15T13:41:28.989Z,75.1
2017-10-15T13:42:36.460Z,77.2
2017-10-15T13:43:43.945Z,75.2
2017-10-15T13:44:51.711Z,73.3
2017-10-15T13:45:59.179Z,74.5
2017-10-15T13:47:06.648Z,74.6
2017-10-15T13:48:13.775Z,74.8
2017-10-15T13:49:21.209Z,76.6
2017-10-15T13:50:28.677Z,72.7
2017-10-15T13:51:35.808Z,76.3
2017-10-15T13:52:43.272Z,76.1
2017-10-15T13:53:50.744Z,75.6
2017-10-15T13:54:58.513Z,77.5
2017-10-15T13:56:05.989Z,76.4
2017-10-15T13:57:13.463Z,71.6
2017-10-15T13:58:20.591Z,75.5
2017-10-15T13:59:27.717Z,72.7
2017-10-15T14:00:35.488Z,72.3
2017-10-15T14:01:42.958Z,74.2
2017-10-15T14:02:50.088Z,77.7
2017-10-15T14:03:57.560Z,78.3
2017-10-15T14:05:05.036Z,79.3
2017-10-15T14:06:12.462Z,79.3
2017-10-15T14:07:19.935Z,78
2017-10-15T14:08:27.408Z,74.5
2017-10-15T14:09:34.874Z,75.5
2017-10-15T14:10:42.351Z,75.6
2017-10-15T14:11:50.125Z,73.6
2017-10-15T14:12:57.594Z,76
2017-10-15T14:14:05.065Z,75.8
2017-10-15T14:15:12.550Z,73.3
2017-10-15T14:16:19.683Z,72.7
2017-10-15T14:17:27.454Z,74.9
2017-10-15T14:18:34.925Z,74.1
2017-10-15T14:19:42.400Z,76.9
2017-10-15T14:20:49.871Z,73.4
2017-10-15T14:21:56.996Z,75.1
2017-10-15T14:23:04.473Z,73.5
2017-10-15T14:24:11.605Z,72.9
2017-10-15T14:25:18.736Z,75.3
2017-10-15T14:26:25.867Z,72.3
2017-10-15T14:27:33.342Z,73.2
2017-10-15T14:28:40.781Z,72.4
2017-10-15T14:29:48.259Z,74.2
2017-10-15T14:30:55.732Z,74.2
2017-10-15T14:32:03.202Z,74.6
2017-10-15T14:33:10.328Z,76.9
2017-10-15T14:34:18.107Z,76.7
2017-10-15T14:35:25.571Z,77.3
2017-10-15T14:36:33.040Z,77.3
2017-10-15T14:37:40.517Z,77.6
2017-10-15T14:38:47.990Z,78
2017-10-15T14:39:55.465Z,75.9
2017-10-15T14:41:02.934Z,75.6
2017-10-15T14:42:10.405Z,74.6
2017-10-15T14:43:17.878Z,77.9
2017-10-15T14:44:25.349Z,77.2
2017-10-15T14:45:32.783Z,75.1
2017-10-15T14:46:40.253Z,78
2017-10-15T14:47:47.048Z,77.9
2017-10-15T14:48:54.527Z,75.7
2017-10-15T14:50:01.997Z,78.4
2017-10-15T14:51:09.473Z,78.1
2017-10-15T14:52:16.944Z,77.3
2017-10-15T14:53:24.412Z,76
2017-10-15T14:54:31.886Z,78.1
2017-10-15T14:55:39.358Z,78.1
2017-10-15T14:56:46.832Z,78.2
2017-10-15T14:57:54.301Z,78.2
2017-10-15T14:59:01.788Z,78.9